Главная страница
METAR-TAF:

METAR-TAF

Аэропорты :

Псков, Россия

широта: 57-47-06N, долгота: 028-23-54E, высота над уровнем моря: 47 м

Текущие метеонаблюдения

Эта сводка был подготовлена 47 минут назад, в 01:00 UTC
Ветер 10 Узел от юго-западный
Температура 12°C
Влажность 82%
Давление 1003 hPa
Видимость 10 км и более

METAR: ULOO 210100Z AUTO 22005MPS 9999 // NCD 12/09 Q1003 RMK QFE748

Время: 04:47 (01:47 UTC)

Прогноз

Эта сводка был подготовлена 14 часа и 48 минут назад, в 10:59 UTC
Прогноз действительный с 20-го 12 UTC до 20-го 21 UTC
Ветер 10 Узел от западный-юго-западный с порывами до 21 Узел
Видимость: 6000 м
Рассеянная облачность на высоте 2000 фута
временами
С 20-го 12 UTC до 20-го 18 UTC
Ветер 14 Узел от западный-юго-западный с порывами до 25 Узел

TAF: ULOO 201059Z 2012/2021 25005G11MPS 6000 BKN020 TEMPO 2012/2018 24007G13MPS

Метеонаблюдения и прогнозы для более 4000 аэропортов (сводки METAR и TAF).

Имеющиеся станции представлены на карте желтыми и красными точками.

Чтобы увидеть название станции, наведите на нее мышь.

Затем щелкните, чтобы увидеть метеонаблюдения и метеопрогнозы.

Управление картой: чтобы увеличить масштаб, щелкните зеленые кнопки с черным крестиком; чтобы уменьшить масштаб, щелкните зеленую кнопку с тире; для просмотра соседних карт щелкайте зеленые стрелки.


METAR-TAF: